sensor_id;sensor_type;location;lat;lon;timestamp;P1;durP1;ratioP1;P2;durP2;ratioP2
51326;SDS011;37412;52.836;6.362;2023-03-12T00:02:08;13.00;;;9.00;;
51326;SDS011;37412;52.836;6.362;2023-03-12T00:04:54;12.82;;;7.95;;
51326;SDS011;37412;52.836;6.362;2023-03-12T00:07:40;10.95;;;6.95;;
51326;SDS011;37412;52.836;6.362;2023-03-12T00:10:27;12.75;;;8.65;;
51326;SDS011;37412;52.836;6.362;2023-03-12T00:13:13;11.23;;;8.82;;
51326;SDS011;37412;52.836;6.362;2023-03-12T00:16:03;13.82;;;7.88;;
51326;SDS011;37412;52.836;6.362;2023-03-12T00:18:54;11.45;;;7.95;;
51326;SDS011;37412;52.836;6.362;2023-03-12T00:21:40;12.07;;;8.95;;
51326;SDS011;37412;52.836;6.362;2023-03-12T00:24:26;13.27;;;7.93;;
51326;SDS011;37412;52.836;6.362;2023-03-12T00:27:12;13.73;;;8.13;;
51326;SDS011;37412;52.836;6.362;2023-03-12T00:29:58;14.50;;;7.70;;
51326;SDS011;37412;52.836;6.362;2023-03-12T00:32:44;10.18;;;6.85;;
51326;SDS011;37412;52.836;6.362;2023-03-12T00:35:30;11.90;;;6.43;;
51326;SDS011;37412;52.836;6.362;2023-03-12T00:38:17;12.93;;;6.85;;
51326;SDS011;37412;52.836;6.362;2023-03-12T00:41:03;11.88;;;6.38;;
51326;SDS011;37412;52.836;6.362;2023-03-12T00:43:49;13.57;;;7.78;;
51326;SDS011;37412;52.836;6.362;2023-03-12T00:46:35;12.90;;;8.65;;
51326;SDS011;37412;52.836;6.362;2023-03-12T00:49:21;11.43;;;7.70;;
51326;SDS011;37412;52.836;6.362;2023-03-12T00:52:07;10.77;;;7.07;;
51326;SDS011;37412;52.836;6.362;2023-03-12T00:54:53;9.73;;;6.30;;
51326;SDS011;37412;52.836;6.362;2023-03-12T00:57:42;9.00;;;6.00;;
51326;SDS011;37412;52.836;6.362;2023-03-12T01:00:28;9.43;;;6.35;;
51326;SDS011;37412;52.836;6.362;2023-03-12T01:03:14;11.93;;;6.72;;
51326;SDS011;37412;52.836;6.362;2023-03-12T01:06:00;11.10;;;6.55;;
51326;SDS011;37412;52.836;6.362;2023-03-12T01:08:46;12.48;;;6.40;;
51326;SDS011;37412;52.836;6.362;2023-03-12T01:11:32;10.27;;;7.10;;
51326;SDS011;37412;52.836;6.362;2023-03-12T01:14:19;11.50;;;6.75;;
51326;SDS011;37412;52.836;6.362;2023-03-12T01:17:05;13.43;;;6.35;;
51326;SDS011;37412;52.836;6.362;2023-03-12T01:19:50;11.02;;;6.85;;
51326;SDS011;37412;52.836;6.362;2023-03-12T01:22:36;10.45;;;6.72;;
51326;SDS011;37412;52.836;6.362;2023-03-12T01:25:23;10.88;;;6.60;;
51326;SDS011;37412;52.836;6.362;2023-03-12T01:28:09;10.63;;;6.43;;
51326;SDS011;37412;52.836;6.362;2023-03-12T01:30:55;10.07;;;6.38;;
51326;SDS011;37412;52.836;6.362;2023-03-12T01:33:41;10.45;;;6.45;;
51326;SDS011;37412;52.836;6.362;2023-03-12T01:36:28;13.93;;;6.55;;
51326;SDS011;37412;52.836;6.362;2023-03-12T01:39:15;10.27;;;6.43;;
51326;SDS011;37412;52.836;6.362;2023-03-12T01:42:01;11.80;;;6.70;;
51326;SDS011;37412;52.836;6.362;2023-03-12T01:44:54;9.85;;;6.40;;
51326;SDS011;37412;52.836;6.362;2023-03-12T01:47:42;11.07;;;6.68;;
51326;SDS011;37412;52.836;6.362;2023-03-12T01:50:28;13.52;;;6.63;;
51326;SDS011;37412;52.836;6.362;2023-03-12T01:53:14;12.20;;;6.68;;
51326;SDS011;37412;52.836;6.362;2023-03-12T01:56:00;12.40;;;6.28;;
51326;SDS011;37412;52.836;6.362;2023-03-12T01:58:48;10.32;;;6.32;;
51326;SDS011;37412;52.836;6.362;2023-03-12T02:01:37;9.45;;;5.97;;
51326;SDS011;37412;52.836;6.362;2023-03-12T02:04:24;8.57;;;5.93;;
51326;SDS011;37412;52.836;6.362;2023-03-12T02:07:13;12.70;;;5.75;;
51326;SDS011;37412;52.836;6.362;2023-03-12T02:10:01;9.60;;;6.07;;
51326;SDS011;37412;52.836;6.362;2023-03-12T02:12:48;8.02;;;5.60;;
51326;SDS011;37412;52.836;6.362;2023-03-12T02:15:35;11.45;;;5.85;;
51326;SDS011;37412;52.836;6.362;2023-03-12T02:18:21;11.20;;;5.85;;
51326;SDS011;37412;52.836;6.362;2023-03-12T02:21:13;10.38;;;6.05;;
51326;SDS011;37412;52.836;6.362;2023-03-12T02:24:17;9.13;;;5.90;;
51326;SDS011;37412;52.836;6.362;2023-03-12T02:27:11;10.48;;;5.90;;
51326;SDS011;37412;52.836;6.362;2023-03-12T02:29:57;10.95;;;6.10;;
51326;SDS011;37412;52.836;6.362;2023-03-12T02:32:44;16.75;;;5.88;;
51326;SDS011;37412;52.836;6.362;2023-03-12T02:35:32;7.70;;;5.57;;
51326;SDS011;37412;52.836;6.362;2023-03-12T02:44:16;10.52;;;6.00;;
51326;SDS011;37412;52.836;6.362;2023-03-12T02:47:03;13.18;;;6.20;;
51326;SDS011;37412;52.836;6.362;2023-03-12T02:49:50;9.38;;;6.00;;
51326;SDS011;37412;52.836;6.362;2023-03-12T02:52:37;10.93;;;6.53;;
51326;SDS011;37412;52.836;6.362;2023-03-12T02:55:23;12.45;;;6.45;;
51326;SDS011;37412;52.836;6.362;2023-03-12T02:58:09;9.07;;;6.93;;
51326;SDS011;37412;52.836;6.362;2023-03-12T03:00:55;12.10;;;6.65;;
51326;SDS011;37412;52.836;6.362;2023-03-12T03:03:41;9.98;;;6.43;;
51326;SDS011;37412;52.836;6.362;2023-03-12T03:06:27;9.95;;;6.65;;
51326;SDS011;37412;52.836;6.362;2023-03-12T03:09:13;14.32;;;6.65;;
51326;SDS011;37412;52.836;6.362;2023-03-12T03:11:59;10.63;;;6.82;;
51326;SDS011;37412;52.836;6.362;2023-03-12T03:14:45;12.27;;;6.38;;
51326;SDS011;37412;52.836;6.362;2023-03-12T03:17:32;10.00;;;6.93;;
51326;SDS011;37412;52.836;6.362;2023-03-12T03:20:18;10.98;;;6.60;;
51326;SDS011;37412;52.836;6.362;2023-03-12T03:23:05;13.90;;;7.25;;
51326;SDS011;37412;52.836;6.362;2023-03-12T03:25:51;11.27;;;6.88;;
51326;SDS011;37412;52.836;6.362;2023-03-12T03:28:37;13.23;;;6.72;;
51326;SDS011;37412;52.836;6.362;2023-03-12T03:31:24;15.80;;;7.45;;
51326;SDS011;37412;52.836;6.362;2023-03-12T03:34:10;12.02;;;6.72;;
51326;SDS011;37412;52.836;6.362;2023-03-12T03:36:56;11.15;;;7.10;;
51326;SDS011;37412;52.836;6.362;2023-03-12T03:39:42;12.43;;;6.75;;
51326;SDS011;37412;52.836;6.362;2023-03-12T03:42:28;12.80;;;7.13;;
51326;SDS011;37412;52.836;6.362;2023-03-12T03:45:14;14.63;;;7.38;;
51326;SDS011;37412;52.836;6.362;2023-03-12T03:48:02;13.00;;;6.85;;
51326;SDS011;37412;52.836;6.362;2023-03-12T03:50:48;13.57;;;7.20;;
51326;SDS011;37412;52.836;6.362;2023-03-12T03:53:34;12.73;;;6.65;;
51326;SDS011;37412;52.836;6.362;2023-03-12T03:56:20;13.18;;;6.75;;
51326;SDS011;37412;52.836;6.362;2023-03-12T03:59:06;10.95;;;6.78;;
51326;SDS011;37412;52.836;6.362;2023-03-12T04:01:52;13.38;;;6.38;;
51326;SDS011;37412;52.836;6.362;2023-03-12T04:04:38;13.85;;;6.78;;
51326;SDS011;37412;52.836;6.362;2023-03-12T04:07:24;9.45;;;6.40;;
51326;SDS011;37412;52.836;6.362;2023-03-12T04:10:11;14.98;;;6.03;;
51326;SDS011;37412;52.836;6.362;2023-03-12T04:12:57;11.15;;;6.15;;
51326;SDS011;37412;52.836;6.362;2023-03-12T04:15:45;13.25;;;6.45;;
51326;SDS011;37412;52.836;6.362;2023-03-12T04:18:35;9.52;;;6.07;;
51326;SDS011;37412;52.836;6.362;2023-03-12T04:21:22;11.48;;;6.45;;
51326;SDS011;37412;52.836;6.362;2023-03-12T04:24:12;12.13;;;6.72;;
51326;SDS011;37412;52.836;6.362;2023-03-12T04:26:59;9.00;;;6.35;;
51326;SDS011;37412;52.836;6.362;2023-03-12T04:29:46;11.68;;;6.78;;
51326;SDS011;37412;52.836;6.362;2023-03-12T04:32:31;16.98;;;6.93;;
51326;SDS011;37412;52.836;6.362;2023-03-12T04:35:17;10.38;;;6.93;;
51326;SDS011;37412;52.836;6.362;2023-03-12T04:38:04;11.75;;;7.13;;
51326;SDS011;37412;52.836;6.362;2023-03-12T04:40:56;10.85;;;6.43;;
51326;SDS011;37412;52.836;6.362;2023-03-12T04:43:43;11.57;;;6.70;;
51326;SDS011;37412;52.836;6.362;2023-03-12T04:46:29;11.45;;;7.40;;
51326;SDS011;37412;52.836;6.362;2023-03-12T04:49:15;14.45;;;7.30;;
51326;SDS011;37412;52.836;6.362;2023-03-12T04:52:01;11.07;;;6.70;;
51326;SDS011;37412;52.836;6.362;2023-03-12T04:54:47;10.82;;;6.97;;
51326;SDS011;37412;52.836;6.362;2023-03-12T04:57:33;11.40;;;6.55;;
51326;SDS011;37412;52.836;6.362;2023-03-12T05:00:19;11.93;;;6.57;;
51326;SDS011;37412;52.836;6.362;2023-03-12T05:03:06;13.75;;;7.32;;
51326;SDS011;37412;52.836;6.362;2023-03-12T05:05:52;13.40;;;7.20;;
51326;SDS011;37412;52.836;6.362;2023-03-12T05:08:38;12.70;;;6.78;;
51326;SDS011;37412;52.836;6.362;2023-03-12T05:11:24;13.13;;;7.28;;
51326;SDS011;37412;52.836;6.362;2023-03-12T05:14:13;13.98;;;7.72;;
51326;SDS011;37412;52.836;6.362;2023-03-12T05:16:59;12.45;;;7.18;;
51326;SDS011;37412;52.836;6.362;2023-03-12T05:19:45;12.95;;;7.22;;
51326;SDS011;37412;52.836;6.362;2023-03-12T05:22:31;12.50;;;6.85;;
51326;SDS011;37412;52.836;6.362;2023-03-12T05:25:17;13.90;;;7.57;;
51326;SDS011;37412;52.836;6.362;2023-03-12T05:28:03;15.38;;;7.07;;
51326;SDS011;37412;52.836;6.362;2023-03-12T05:30:49;13.05;;;7.55;;
51326;SDS011;37412;52.836;6.362;2023-03-12T05:33:35;14.23;;;7.15;;
51326;SDS011;37412;52.836;6.362;2023-03-12T05:36:21;10.43;;;6.75;;
51326;SDS011;37412;52.836;6.362;2023-03-12T05:39:07;11.90;;;7.55;;
51326;SDS011;37412;52.836;6.362;2023-03-12T05:41:53;12.10;;;7.15;;
51326;SDS011;37412;52.836;6.362;2023-03-12T05:44:42;11.43;;;7.38;;
51326;SDS011;37412;52.836;6.362;2023-03-12T05:47:28;13.30;;;7.43;;
51326;SDS011;37412;52.836;6.362;2023-03-12T05:50:14;11.07;;;6.80;;
51326;SDS011;37412;52.836;6.362;2023-03-12T05:53:04;12.60;;;7.07;;
51326;SDS011;37412;52.836;6.362;2023-03-12T05:55:50;13.65;;;7.20;;
51326;SDS011;37412;52.836;6.362;2023-03-12T05:58:36;15.50;;;7.60;;
51326;SDS011;37412;52.836;6.362;2023-03-12T06:01:23;13.15;;;7.40;;
51326;SDS011;37412;52.836;6.362;2023-03-12T06:04:11;12.50;;;7.97;;
51326;SDS011;37412;52.836;6.362;2023-03-12T06:06:57;15.25;;;7.68;;
51326;SDS011;37412;52.836;6.362;2023-03-12T06:09:43;16.23;;;8.27;;
51326;SDS011;37412;52.836;6.362;2023-03-12T06:12:29;12.60;;;8.30;;
51326;SDS011;37412;52.836;6.362;2023-03-12T06:15:15;16.58;;;8.00;;
51326;SDS011;37412;52.836;6.362;2023-03-12T06:18:01;14.30;;;8.27;;
51326;SDS011;37412;52.836;6.362;2023-03-12T06:20:47;13.90;;;8.63;;
51326;SDS011;37412;52.836;6.362;2023-03-12T06:23:32;13.43;;;8.73;;
51326;SDS011;37412;52.836;6.362;2023-03-12T06:26:19;13.80;;;8.02;;
51326;SDS011;37412;52.836;6.362;2023-03-12T06:29:06;13.82;;;8.38;;
51326;SDS011;37412;52.836;6.362;2023-03-12T06:31:55;15.45;;;8.23;;
51326;SDS011;37412;52.836;6.362;2023-03-12T06:34:41;17.38;;;9.13;;
51326;SDS011;37412;52.836;6.362;2023-03-12T06:37:30;15.52;;;8.95;;
51326;SDS011;37412;52.836;6.362;2023-03-12T06:40:16;16.35;;;8.43;;
51326;SDS011;37412;52.836;6.362;2023-03-12T06:43:02;12.98;;;8.57;;
51326;SDS011;37412;52.836;6.362;2023-03-12T06:45:48;15.48;;;8.10;;
51326;SDS011;37412;52.836;6.362;2023-03-12T06:48:34;14.82;;;8.43;;
51326;SDS011;37412;52.836;6.362;2023-03-12T06:51:24;13.90;;;7.90;;
51326;SDS011;37412;52.836;6.362;2023-03-12T06:54:10;18.60;;;8.50;;
51326;SDS011;37412;52.836;6.362;2023-03-12T06:56:56;15.25;;;9.10;;
51326;SDS011;37412;52.836;6.362;2023-03-12T06:59:43;18.90;;;9.38;;
51326;SDS011;37412;52.836;6.362;2023-03-12T07:02:29;17.63;;;8.65;;
51326;SDS011;37412;52.836;6.362;2023-03-12T07:05:15;20.33;;;9.55;;
51326;SDS011;37412;52.836;6.362;2023-03-12T07:08:01;16.40;;;9.98;;
51326;SDS011;37412;52.836;6.362;2023-03-12T07:10:48;14.23;;;9.30;;
51326;SDS011;37412;52.836;6.362;2023-03-12T07:13:34;17.27;;;9.38;;
51326;SDS011;37412;52.836;6.362;2023-03-12T07:16:20;17.25;;;9.98;;
51326;SDS011;37412;52.836;6.362;2023-03-12T07:19:06;16.55;;;9.35;;
51326;SDS011;37412;52.836;6.362;2023-03-12T07:21:52;18.35;;;10.50;;
51326;SDS011;37412;52.836;6.362;2023-03-12T07:24:38;20.75;;;10.15;;
51326;SDS011;37412;52.836;6.362;2023-03-12T07:27:24;17.15;;;10.05;;
51326;SDS011;37412;52.836;6.362;2023-03-12T07:30:10;16.95;;;10.30;;
51326;SDS011;37412;52.836;6.362;2023-03-12T07:32:56;17.08;;;10.52;;
51326;SDS011;37412;52.836;6.362;2023-03-12T07:35:42;19.38;;;11.30;;
51326;SDS011;37412;52.836;6.362;2023-03-12T07:38:28;23.95;;;11.00;;
51326;SDS011;37412;52.836;6.362;2023-03-12T07:41:14;18.45;;;10.93;;
51326;SDS011;37412;52.836;6.362;2023-03-12T07:44:00;17.77;;;11.63;;
51326;SDS011;37412;52.836;6.362;2023-03-12T07:46:46;15.02;;;10.77;;
51326;SDS011;37412;52.836;6.362;2023-03-12T07:49:32;16.23;;;10.73;;
51326;SDS011;37412;52.836;6.362;2023-03-12T07:52:18;20.13;;;11.75;;
51326;SDS011;37412;52.836;6.362;2023-03-12T07:55:04;21.13;;;11.38;;
51326;SDS011;37412;52.836;6.362;2023-03-12T07:57:51;17.60;;;11.65;;
51326;SDS011;37412;52.836;6.362;2023-03-12T08:00:40;20.45;;;12.32;;
51326;SDS011;37412;52.836;6.362;2023-03-12T08:03:29;17.33;;;11.88;;
51326;SDS011;37412;52.836;6.362;2023-03-12T08:06:15;20.95;;;12.45;;
51326;SDS011;37412;52.836;6.362;2023-03-12T08:09:01;21.98;;;12.07;;
51326;SDS011;37412;52.836;6.362;2023-03-12T08:11:47;17.77;;;11.98;;
51326;SDS011;37412;52.836;6.362;2023-03-12T08:14:33;17.98;;;11.82;;
51326;SDS011;37412;52.836;6.362;2023-03-12T08:17:19;17.23;;;11.02;;
51326;SDS011;37412;52.836;6.362;2023-03-12T08:20:06;19.38;;;11.85;;
51326;SDS011;37412;52.836;6.362;2023-03-12T08:22:54;17.63;;;11.93;;
51326;SDS011;37412;52.836;6.362;2023-03-12T08:25:40;16.88;;;11.70;;
51326;SDS011;37412;52.836;6.362;2023-03-12T08:28:26;19.52;;;11.77;;
51326;SDS011;37412;52.836;6.362;2023-03-12T08:31:12;22.48;;;12.43;;
51326;SDS011;37412;52.836;6.362;2023-03-12T08:33:58;19.88;;;11.77;;
51326;SDS011;37412;52.836;6.362;2023-03-12T08:36:44;18.25;;;10.65;;
51326;SDS011;37412;52.836;6.362;2023-03-12T08:39:30;15.45;;;9.45;;
51326;SDS011;37412;52.836;6.362;2023-03-12T08:42:16;22.15;;;10.60;;
51326;SDS011;37412;52.836;6.362;2023-03-12T08:45:02;20.95;;;9.50;;
51326;SDS011;37412;52.836;6.362;2023-03-12T08:47:48;16.50;;;10.13;;
51326;SDS011;37412;52.836;6.362;2023-03-12T08:50:34;15.95;;;10.35;;
51326;SDS011;37412;52.836;6.362;2023-03-12T08:53:20;15.52;;;9.90;;
51326;SDS011;37412;52.836;6.362;2023-03-12T08:56:07;15.52;;;9.63;;
51326;SDS011;37412;52.836;6.362;2023-03-12T08:58:57;19.13;;;10.50;;
51326;SDS011;37412;52.836;6.362;2023-03-12T09:01:43;14.10;;;10.43;;
51326;SDS011;37412;52.836;6.362;2023-03-12T09:04:29;17.15;;;11.15;;
51326;SDS011;37412;52.836;6.362;2023-03-12T09:07:15;19.92;;;11.10;;
51326;SDS011;37412;52.836;6.362;2023-03-12T09:10:04;17.85;;;10.77;;
51326;SDS011;37412;52.836;6.362;2023-03-12T09:12:51;17.90;;;11.00;;
51326;SDS011;37412;52.836;6.362;2023-03-12T09:15:37;15.90;;;10.57;;
51326;SDS011;37412;52.836;6.362;2023-03-12T09:18:23;20.10;;;10.95;;
51326;SDS011;37412;52.836;6.362;2023-03-12T09:21:08;20.83;;;11.07;;
51326;SDS011;37412;52.836;6.362;2023-03-12T09:23:55;16.13;;;11.02;;
51326;SDS011;37412;52.836;6.362;2023-03-12T09:26:41;19.30;;;11.43;;
51326;SDS011;37412;52.836;6.362;2023-03-12T09:29:26;15.25;;;10.13;;
51326;SDS011;37412;52.836;6.362;2023-03-12T09:32:12;16.30;;;10.48;;
51326;SDS011;37412;52.836;6.362;2023-03-12T09:35:00;16.08;;;11.73;;
51326;SDS011;37412;52.836;6.362;2023-03-12T09:37:47;16.70;;;11.30;;
51326;SDS011;37412;52.836;6.362;2023-03-12T09:40:35;16.35;;;10.98;;
51326;SDS011;37412;52.836;6.362;2023-03-12T09:46:17;17.73;;;10.32;;
51326;SDS011;37412;52.836;6.362;2023-03-12T09:49:11;11.90;;;9.55;;
51326;SDS011;37412;52.836;6.362;2023-03-12T09:52:07;21.65;;;11.07;;
51326;SDS011;37412;52.836;6.362;2023-03-12T09:55:21;15.52;;;10.38;;
51326;SDS011;37412;52.836;6.362;2023-03-12T09:58:21;15.32;;;11.02;;
51326;SDS011;37412;52.836;6.362;2023-03-12T10:04:26;14.93;;;10.30;;
51326;SDS011;37412;52.836;6.362;2023-03-12T10:07:20;15.98;;;11.38;;
51326;SDS011;37412;52.836;6.362;2023-03-12T10:16:10;16.58;;;11.13;;
51326;SDS011;37412;52.836;6.362;2023-03-12T10:19:23;22.70;;;12.40;;
51326;SDS011;37412;52.836;6.362;2023-03-12T10:22:38;18.23;;;12.18;;
51326;SDS011;37412;52.836;6.362;2023-03-12T10:28:24;20.40;;;12.50;;
51326;SDS011;37412;52.836;6.362;2023-03-12T10:31:29;17.15;;;12.00;;
51326;SDS011;37412;52.836;6.362;2023-03-12T10:34:22;22.48;;;13.88;;
51326;SDS011;37412;52.836;6.362;2023-03-12T10:37:21;20.50;;;13.85;;
51326;SDS011;37412;52.836;6.362;2023-03-12T10:40:22;20.67;;;13.60;;
51326;SDS011;37412;52.836;6.362;2023-03-12T10:43:10;20.25;;;13.52;;
51326;SDS011;37412;52.836;6.362;2023-03-12T10:55:20;20.15;;;13.50;;
51326;SDS011;37412;52.836;6.362;2023-03-12T10:58:23;20.83;;;14.43;;
51326;SDS011;37412;52.836;6.362;2023-03-12T11:01:20;24.02;;;15.00;;
51326;SDS011;37412;52.836;6.362;2023-03-12T11:15:41;25.15;;;15.75;;
51326;SDS011;37412;52.836;6.362;2023-03-12T11:18:32;25.77;;;15.98;;
51326;SDS011;37412;52.836;6.362;2023-03-12T11:21:21;28.48;;;16.52;;
51326;SDS011;37412;52.836;6.362;2023-03-12T11:24:09;25.98;;;15.68;;
51326;SDS011;37412;52.836;6.362;2023-03-12T11:27:06;26.08;;;16.30;;
51326;SDS011;37412;52.836;6.362;2023-03-12T11:29:57;31.45;;;17.45;;
51326;SDS011;37412;52.836;6.362;2023-03-12T11:32:45;29.20;;;16.15;;
51326;SDS011;37412;52.836;6.362;2023-03-12T11:57:01;43.45;;;23.17;;
51326;SDS011;37412;52.836;6.362;2023-03-12T12:00:02;36.03;;;21.55;;
51326;SDS011;37412;52.836;6.362;2023-03-12T12:06:06;34.67;;;20.00;;
51326;SDS011;37412;52.836;6.362;2023-03-12T12:09:05;41.15;;;22.77;;
51326;SDS011;37412;52.836;6.362;2023-03-12T12:12:20;49.70;;;23.63;;
51326;SDS011;37412;52.836;6.362;2023-03-12T12:27:35;46.08;;;24.00;;
51326;SDS011;37412;52.836;6.362;2023-03-12T12:30:51;42.60;;;21.85;;
51326;SDS011;37412;52.836;6.362;2023-03-12T12:40:26;44.83;;;23.00;;
51326;SDS011;37412;52.836;6.362;2023-03-12T12:43:26;51.40;;;24.23;;
51326;SDS011;37412;52.836;6.362;2023-03-12T12:46:20;56.22;;;24.60;;
51326;SDS011;37412;52.836;6.362;2023-03-12T12:49:22;52.70;;;25.90;;
51326;SDS011;37412;52.836;6.362;2023-03-12T12:52:16;48.55;;;23.67;;
51326;SDS011;37412;52.836;6.362;2023-03-12T12:55:15;50.90;;;24.50;;
51326;SDS011;37412;52.836;6.362;2023-03-12T12:58:10;51.25;;;23.60;;
51326;SDS011;37412;52.836;6.362;2023-03-12T13:01:05;48.90;;;23.98;;
51326;SDS011;37412;52.836;6.362;2023-03-12T13:03:55;52.28;;;23.70;;
51326;SDS011;37412;52.836;6.362;2023-03-12T13:09:41;56.30;;;23.70;;
51326;SDS011;37412;52.836;6.362;2023-03-12T13:12:30;59.33;;;24.73;;
51326;SDS011;37412;52.836;6.362;2023-03-12T13:18:21;62.17;;;24.05;;
51326;SDS011;37412;52.836;6.362;2023-03-12T13:21:45;58.63;;;23.02;;
51326;SDS011;37412;52.836;6.362;2023-03-12T13:24:40;59.15;;;22.25;;
51326;SDS011;37412;52.836;6.362;2023-03-12T13:27:28;53.78;;;21.65;;
51326;SDS011;37412;52.836;6.362;2023-03-12T13:33:18;44.05;;;14.52;;
51326;SDS011;37412;52.836;6.362;2023-03-12T13:36:25;45.67;;;15.30;;
51326;SDS011;37412;52.836;6.362;2023-03-12T13:45:26;41.47;;;11.68;;
51326;SDS011;37412;52.836;6.362;2023-03-12T13:48:15;45.55;;;12.98;;
51326;SDS011;37412;52.836;6.362;2023-03-12T13:54:05;44.22;;;11.73;;
51326;SDS011;37412;52.836;6.362;2023-03-12T13:57:04;48.80;;;12.18;;
51326;SDS011;37412;52.836;6.362;2023-03-12T14:00:20;52.30;;;12.02;;
51326;SDS011;37412;52.836;6.362;2023-03-12T14:03:19;42.05;;;11.43;;
51326;SDS011;37412;52.836;6.362;2023-03-12T14:06:11;49.42;;;11.95;;
51326;SDS011;37412;52.836;6.362;2023-03-12T14:12:21;44.50;;;9.55;;
51326;SDS011;37412;52.836;6.362;2023-03-12T14:15:50;49.72;;;9.55;;
51326;SDS011;37412;52.836;6.362;2023-03-12T14:18:45;40.00;;;8.90;;
51326;SDS011;37412;52.836;6.362;2023-03-12T14:21:34;39.80;;;9.57;;
51326;SDS011;37412;52.836;6.362;2023-03-12T14:24:24;42.00;;;10.15;;
51326;SDS011;37412;52.836;6.362;2023-03-12T14:27:14;45.03;;;9.23;;
51326;SDS011;37412;52.836;6.362;2023-03-12T14:30:10;43.53;;;8.75;;
51326;SDS011;37412;52.836;6.362;2023-03-12T14:33:04;41.92;;;8.38;;
51326;SDS011;37412;52.836;6.362;2023-03-12T14:35:56;41.53;;;8.30;;
51326;SDS011;37412;52.836;6.362;2023-03-12T14:38:48;37.55;;;7.53;;
51326;SDS011;37412;52.836;6.362;2023-03-12T14:41:34;57.30;;;15.05;;
51326;SDS011;37412;52.836;6.362;2023-03-12T14:44:25;54.83;;;13.65;;
51326;SDS011;37412;52.836;6.362;2023-03-12T14:47:16;42.67;;;7.63;;
51326;SDS011;37412;52.836;6.362;2023-03-12T14:50:02;48.53;;;15.00;;
51326;SDS011;37412;52.836;6.362;2023-03-12T14:52:48;42.35;;;8.18;;
51326;SDS011;37412;52.836;6.362;2023-03-12T14:55:35;40.70;;;6.93;;
51326;SDS011;37412;52.836;6.362;2023-03-12T14:58:21;44.90;;;7.88;;
51326;SDS011;37412;52.836;6.362;2023-03-12T15:01:10;36.13;;;6.80;;
51326;SDS011;37412;52.836;6.362;2023-03-12T15:03:58;38.20;;;7.25;;
51326;SDS011;37412;52.836;6.362;2023-03-12T15:06:53;43.72;;;8.32;;
51326;SDS011;37412;52.836;6.362;2023-03-12T15:09:42;43.72;;;7.22;;
51326;SDS011;37412;52.836;6.362;2023-03-12T15:12:36;44.17;;;6.43;;
51326;SDS011;37412;52.836;6.362;2023-03-12T15:18:28;48.13;;;7.25;;
51326;SDS011;37412;52.836;6.362;2023-03-12T15:21:15;47.35;;;8.13;;
51326;SDS011;37412;52.836;6.362;2023-03-12T15:24:02;48.85;;;7.82;;
51326;SDS011;37412;52.836;6.362;2023-03-12T15:26:49;43.65;;;7.60;;
51326;SDS011;37412;52.836;6.362;2023-03-12T15:29:39;45.30;;;7.47;;
51326;SDS011;37412;52.836;6.362;2023-03-12T15:32:26;37.35;;;7.03;;
51326;SDS011;37412;52.836;6.362;2023-03-12T15:35:23;47.90;;;10.38;;
51326;SDS011;37412;52.836;6.362;2023-03-12T15:38:13;45.15;;;7.38;;
51326;SDS011;37412;52.836;6.362;2023-03-12T15:41:07;38.03;;;7.85;;
51326;SDS011;37412;52.836;6.362;2023-03-12T15:43:57;40.95;;;6.97;;
51326;SDS011;37412;52.836;6.362;2023-03-12T15:46:45;38.28;;;6.90;;
51326;SDS011;37412;52.836;6.362;2023-03-12T15:49:36;46.55;;;8.43;;
51326;SDS011;37412;52.836;6.362;2023-03-12T15:52:27;51.40;;;8.05;;
51326;SDS011;37412;52.836;6.362;2023-03-12T15:55:20;43.05;;;7.10;;
51326;SDS011;37412;52.836;6.362;2023-03-12T15:58:29;39.55;;;6.72;;
51326;SDS011;37412;52.836;6.362;2023-03-12T16:01:19;40.90;;;7.07;;
51326;SDS011;37412;52.836;6.362;2023-03-12T16:04:08;44.95;;;6.65;;
51326;SDS011;37412;52.836;6.362;2023-03-12T16:06:54;45.83;;;7.53;;
51326;SDS011;37412;52.836;6.362;2023-03-12T16:09:40;49.08;;;9.73;;
51326;SDS011;37412;52.836;6.362;2023-03-12T16:12:26;44.50;;;7.25;;
51326;SDS011;37412;52.836;6.362;2023-03-12T16:15:13;46.83;;;8.30;;
51326;SDS011;37412;52.836;6.362;2023-03-12T16:18:14;35.83;;;7.07;;
51326;SDS011;37412;52.836;6.362;2023-03-12T16:21:02;48.78;;;7.97;;
51326;SDS011;37412;52.836;6.362;2023-03-12T16:23:48;40.03;;;7.15;;
51326;SDS011;37412;52.836;6.362;2023-03-12T16:26:34;37.70;;;7.82;;
51326;SDS011;37412;52.836;6.362;2023-03-12T16:29:26;48.03;;;7.95;;
51326;SDS011;37412;52.836;6.362;2023-03-12T16:32:18;39.10;;;6.90;;
51326;SDS011;37412;52.836;6.362;2023-03-12T16:35:08;44.33;;;7.25;;
51326;SDS011;37412;52.836;6.362;2023-03-12T16:38:00;49.63;;;8.10;;
51326;SDS011;37412;52.836;6.362;2023-03-12T16:40:47;44.42;;;8.60;;
51326;SDS011;37412;52.836;6.362;2023-03-12T16:43:35;42.78;;;7.85;;
51326;SDS011;37412;52.836;6.362;2023-03-12T16:46:21;45.00;;;7.30;;
51326;SDS011;37412;52.836;6.362;2023-03-12T16:49:08;39.05;;;7.15;;
51326;SDS011;37412;52.836;6.362;2023-03-12T16:52:00;38.97;;;6.13;;
51326;SDS011;37412;52.836;6.362;2023-03-12T16:55:02;41.67;;;6.88;;
51326;SDS011;37412;52.836;6.362;2023-03-12T16:57:49;41.80;;;7.28;;
51326;SDS011;37412;52.836;6.362;2023-03-12T17:00:37;35.28;;;6.70;;
51326;SDS011;37412;52.836;6.362;2023-03-12T17:03:33;41.10;;;7.30;;
51326;SDS011;37412;52.836;6.362;2023-03-12T17:06:22;49.75;;;7.82;;
51326;SDS011;37412;52.836;6.362;2023-03-12T17:09:10;38.40;;;6.28;;
51326;SDS011;37412;52.836;6.362;2023-03-12T17:11:56;35.80;;;5.93;;
51326;SDS011;37412;52.836;6.362;2023-03-12T17:14:42;35.28;;;6.43;;
51326;SDS011;37412;52.836;6.362;2023-03-12T17:17:28;41.33;;;7.47;;
51326;SDS011;37412;52.836;6.362;2023-03-12T17:20:14;37.80;;;6.00;;
51326;SDS011;37412;52.836;6.362;2023-03-12T17:23:05;34.22;;;7.18;;
51326;SDS011;37412;52.836;6.362;2023-03-12T17:25:51;28.25;;;5.95;;
51326;SDS011;37412;52.836;6.362;2023-03-12T17:28:37;37.50;;;5.93;;
51326;SDS011;37412;52.836;6.362;2023-03-12T17:31:24;37.60;;;6.15;;
51326;SDS011;37412;52.836;6.362;2023-03-12T17:34:10;40.85;;;7.07;;
51326;SDS011;37412;52.836;6.362;2023-03-12T17:36:56;45.20;;;11.18;;
51326;SDS011;37412;52.836;6.362;2023-03-12T17:39:43;41.60;;;6.93;;
51326;SDS011;37412;52.836;6.362;2023-03-12T17:42:29;43.53;;;6.82;;
51326;SDS011;37412;52.836;6.362;2023-03-12T17:45:16;42.17;;;6.45;;
51326;SDS011;37412;52.836;6.362;2023-03-12T17:48:02;36.03;;;6.22;;
51326;SDS011;37412;52.836;6.362;2023-03-12T17:50:49;45.10;;;7.15;;
51326;SDS011;37412;52.836;6.362;2023-03-12T17:53:35;38.08;;;6.60;;
51326;SDS011;37412;52.836;6.362;2023-03-12T17:56:23;34.05;;;6.00;;
51326;SDS011;37412;52.836;6.362;2023-03-12T17:59:09;42.10;;;7.00;;
51326;SDS011;37412;52.836;6.362;2023-03-12T18:01:55;35.88;;;6.93;;
51326;SDS011;37412;52.836;6.362;2023-03-12T18:04:41;44.63;;;7.10;;
51326;SDS011;37412;52.836;6.362;2023-03-12T18:07:27;36.58;;;6.32;;
51326;SDS011;37412;52.836;6.362;2023-03-12T18:10:13;43.47;;;7.13;;
51326;SDS011;37412;52.836;6.362;2023-03-12T18:12:59;39.83;;;6.30;;
51326;SDS011;37412;52.836;6.362;2023-03-12T18:15:50;42.88;;;7.45;;
51326;SDS011;37412;52.836;6.362;2023-03-12T18:18:40;39.28;;;6.57;;
51326;SDS011;37412;52.836;6.362;2023-03-12T18:21:26;42.33;;;6.72;;
51326;SDS011;37412;52.836;6.362;2023-03-12T18:24:12;33.95;;;6.22;;
51326;SDS011;37412;52.836;6.362;2023-03-12T18:26:59;41.05;;;7.00;;
51326;SDS011;37412;52.836;6.362;2023-03-12T18:29:45;49.97;;;6.70;;